sensor_id;sensor_type;location;lat;lon;timestamp;pressure;altitude;pressure_sealevel;temperature;humidity
35551;BME280;21655;46.056;13.616;2023-03-19T00:00:14;100749.69;;;5.25;100.00
35551;BME280;21655;46.056;13.616;2023-03-19T00:02:40;100744.00;;;5.17;100.00
35551;BME280;21655;46.056;13.616;2023-03-19T00:05:06;100741.94;;;5.09;100.00
35551;BME280;21655;46.056;13.616;2023-03-19T00:07:32;100737.06;;;5.13;100.00
35551;BME280;21655;46.056;13.616;2023-03-19T00:09:57;100738.63;;;5.15;100.00
35551;BME280;21655;46.056;13.616;2023-03-19T00:12:23;100730.72;;;5.22;100.00
35551;BME280;21655;46.056;13.616;2023-03-19T00:14:48;100729.25;;;5.18;100.00
35551;BME280;21655;46.056;13.616;2023-03-19T00:17:14;100737.59;;;5.07;100.00
35551;BME280;21655;46.056;13.616;2023-03-19T00:19:40;100729.72;;;5.23;100.00
35551;BME280;21655;46.056;13.616;2023-03-19T00:22:05;100739.84;;;5.22;100.00
35551;BME280;21655;46.056;13.616;2023-03-19T00:24:31;100734.75;;;5.18;100.00
35551;BME280;21655;46.056;13.616;2023-03-19T00:26:57;100728.88;;;5.02;100.00
35551;BME280;21655;46.056;13.616;2023-03-19T00:29:22;100741.97;;;4.89;100.00
35551;BME280;21655;46.056;13.616;2023-03-19T00:31:48;100739.31;;;4.78;100.00
35551;BME280;21655;46.056;13.616;2023-03-19T00:34:14;100751.94;;;4.69;100.00
35551;BME280;21655;46.056;13.616;2023-03-19T00:36:43;100744.97;;;4.65;100.00
35551;BME280;21655;46.056;13.616;2023-03-19T00:39:09;100735.28;;;4.82;100.00
35551;BME280;21655;46.056;13.616;2023-03-19T00:41:35;100740.03;;;4.80;100.00
35551;BME280;21655;46.056;13.616;2023-03-19T00:44:00;100727.72;;;4.74;100.00
35551;BME280;21655;46.056;13.616;2023-03-19T00:46:25;100726.81;;;4.74;100.00
35551;BME280;21655;46.056;13.616;2023-03-19T00:48:51;100731.59;;;4.72;100.00
35551;BME280;21655;46.056;13.616;2023-03-19T00:51:19;100737.97;;;4.72;100.00
35551;BME280;21655;46.056;13.616;2023-03-19T00:53:45;100727.31;;;4.58;100.00
35551;BME280;21655;46.056;13.616;2023-03-19T00:56:12;100725.75;;;4.65;100.00
35551;BME280;21655;46.056;13.616;2023-03-19T00:58:39;100723.97;;;4.55;100.00
35551;BME280;21655;46.056;13.616;2023-03-19T01:01:08;100733.75;;;4.48;100.00
35551;BME280;21655;46.056;13.616;2023-03-19T01:03:35;100736.81;;;4.34;100.00
35551;BME280;21655;46.056;13.616;2023-03-19T01:06:00;100734.25;;;4.42;100.00
35551;BME280;21655;46.056;13.616;2023-03-19T01:08:26;100737.69;;;4.55;100.00
35551;BME280;21655;46.056;13.616;2023-03-19T01:10:51;100725.69;;;4.56;100.00
35551;BME280;21655;46.056;13.616;2023-03-19T01:13:17;100728.25;;;4.48;100.00
35551;BME280;21655;46.056;13.616;2023-03-19T01:15:43;100731.13;;;4.46;100.00
35551;BME280;21655;46.056;13.616;2023-03-19T01:18:10;100720.69;;;4.40;100.00
35551;BME280;21655;46.056;13.616;2023-03-19T01:20:38;100727.94;;;4.30;100.00
35551;BME280;21655;46.056;13.616;2023-03-19T01:23:04;100712.28;;;4.21;100.00
35551;BME280;21655;46.056;13.616;2023-03-19T01:25:29;100712.81;;;4.15;100.00
35551;BME280;21655;46.056;13.616;2023-03-19T01:27:55;100714.78;;;4.24;100.00
35551;BME280;21655;46.056;13.616;2023-03-19T01:30:21;100717.31;;;4.37;100.00
35551;BME280;21655;46.056;13.616;2023-03-19T01:32:47;100724.00;;;4.44;100.00
35551;BME280;21655;46.056;13.616;2023-03-19T01:35:13;100720.59;;;4.51;100.00
35551;BME280;21655;46.056;13.616;2023-03-19T01:37:39;100726.16;;;4.40;100.00
35551;BME280;21655;46.056;13.616;2023-03-19T01:40:05;100727.03;;;4.41;100.00
35551;BME280;21655;46.056;13.616;2023-03-19T01:42:32;100729.78;;;4.41;100.00
35551;BME280;21655;46.056;13.616;2023-03-19T01:44:57;100724.09;;;4.33;100.00
35551;BME280;21655;46.056;13.616;2023-03-19T01:47:38;100725.66;;;4.15;100.00
35551;BME280;21655;46.056;13.616;2023-03-19T01:50:18;100720.69;;;4.09;100.00
35551;BME280;21655;46.056;13.616;2023-03-19T01:52:46;100718.56;;;4.12;100.00
35551;BME280;21655;46.056;13.616;2023-03-19T01:55:11;100734.31;;;3.99;100.00
35551;BME280;21655;46.056;13.616;2023-03-19T01:57:37;100729.63;;;3.90;100.00
35551;BME280;21655;46.056;13.616;2023-03-19T02:00:05;100741.81;;;3.86;100.00
35551;BME280;21655;46.056;13.616;2023-03-19T02:02:33;100738.50;;;3.83;100.00
35551;BME280;21655;46.056;13.616;2023-03-19T02:05:03;100740.19;;;3.95;100.00
35551;BME280;21655;46.056;13.616;2023-03-19T02:07:31;100739.84;;;3.88;100.00
35551;BME280;21655;46.056;13.616;2023-03-19T02:09:58;100733.28;;;3.80;100.00
35551;BME280;21655;46.056;13.616;2023-03-19T02:12:24;100735.09;;;3.90;100.00
35551;BME280;21655;46.056;13.616;2023-03-19T02:14:50;100731.44;;;4.01;100.00
35551;BME280;21655;46.056;13.616;2023-03-19T02:17:16;100727.97;;;3.99;100.00
35551;BME280;21655;46.056;13.616;2023-03-19T02:20:13;100736.22;;;3.88;100.00
35551;BME280;21655;46.056;13.616;2023-03-19T02:28:09;100729.81;;;3.67;100.00
35551;BME280;21655;46.056;13.616;2023-03-19T02:30:36;100738.59;;;3.81;100.00
35551;BME280;21655;46.056;13.616;2023-03-19T02:33:02;100730.47;;;3.91;100.00
35551;BME280;21655;46.056;13.616;2023-03-19T02:35:31;100727.34;;;3.95;100.00
35551;BME280;21655;46.056;13.616;2023-03-19T02:37:57;100726.72;;;3.92;100.00
35551;BME280;21655;46.056;13.616;2023-03-19T02:40:28;100737.13;;;3.77;100.00
35551;BME280;21655;46.056;13.616;2023-03-19T02:42:55;100731.47;;;3.90;100.00
35551;BME280;21655;46.056;13.616;2023-03-19T02:45:22;100733.38;;;3.89;100.00
35551;BME280;21655;46.056;13.616;2023-03-19T02:47:47;100735.75;;;3.83;100.00
35551;BME280;21655;46.056;13.616;2023-03-19T02:50:13;100738.75;;;3.80;100.00
35551;BME280;21655;46.056;13.616;2023-03-19T02:52:38;100737.75;;;3.81;100.00
35551;BME280;21655;46.056;13.616;2023-03-19T02:55:05;100733.00;;;3.83;100.00
35551;BME280;21655;46.056;13.616;2023-03-19T02:57:30;100728.25;;;3.85;100.00
35551;BME280;21655;46.056;13.616;2023-03-19T02:59:56;100728.53;;;3.82;100.00
35551;BME280;21655;46.056;13.616;2023-03-19T03:02:21;100715.09;;;3.79;100.00
35551;BME280;21655;46.056;13.616;2023-03-19T03:04:47;100714.31;;;3.77;100.00
35551;BME280;21655;46.056;13.616;2023-03-19T03:07:12;100710.47;;;3.68;100.00
35551;BME280;21655;46.056;13.616;2023-03-19T03:09:38;100714.84;;;3.71;100.00
35551;BME280;21655;46.056;13.616;2023-03-19T03:12:03;100713.63;;;3.64;100.00
35551;BME280;21655;46.056;13.616;2023-03-19T03:14:30;100725.53;;;3.74;100.00
35551;BME280;21655;46.056;13.616;2023-03-19T03:16:55;100725.59;;;3.63;100.00
35551;BME280;21655;46.056;13.616;2023-03-19T03:19:21;100733.41;;;3.67;100.00
35551;BME280;21655;46.056;13.616;2023-03-19T03:21:47;100721.06;;;3.62;100.00
35551;BME280;21655;46.056;13.616;2023-03-19T03:24:13;100720.22;;;3.62;100.00
35551;BME280;21655;46.056;13.616;2023-03-19T03:26:39;100713.47;;;3.65;100.00
35551;BME280;21655;46.056;13.616;2023-03-19T03:29:05;100721.22;;;3.61;100.00
35551;BME280;21655;46.056;13.616;2023-03-19T03:31:31;100732.94;;;3.63;100.00
35551;BME280;21655;46.056;13.616;2023-03-19T03:33:57;100735.31;;;3.56;100.00
35551;BME280;21655;46.056;13.616;2023-03-19T03:36:22;100734.81;;;3.40;100.00
35551;BME280;21655;46.056;13.616;2023-03-19T03:38:48;100745.41;;;3.34;100.00
35551;BME280;21655;46.056;13.616;2023-03-19T03:41:14;100739.44;;;3.40;100.00
35551;BME280;21655;46.056;13.616;2023-03-19T03:43:39;100734.81;;;3.40;100.00
35551;BME280;21655;46.056;13.616;2023-03-19T03:46:05;100742.06;;;3.30;100.00
35551;BME280;21655;46.056;13.616;2023-03-19T03:48:32;100741.44;;;3.27;100.00
35551;BME280;21655;46.056;13.616;2023-03-19T03:50:57;100746.44;;;3.22;100.00
35551;BME280;21655;46.056;13.616;2023-03-19T03:53:22;100737.59;;;3.18;100.00
35551;BME280;21655;46.056;13.616;2023-03-19T03:55:48;100743.28;;;3.26;100.00
35551;BME280;21655;46.056;13.616;2023-03-19T03:58:13;100731.59;;;3.35;100.00
35551;BME280;21655;46.056;13.616;2023-03-19T04:00:39;100731.47;;;3.26;100.00
35551;BME280;21655;46.056;13.616;2023-03-19T04:03:05;100731.47;;;3.26;100.00
35551;BME280;21655;46.056;13.616;2023-03-19T04:05:30;100727.50;;;3.19;100.00
35551;BME280;21655;46.056;13.616;2023-03-19T04:07:56;100736.34;;;3.22;100.00
35551;BME280;21655;46.056;13.616;2023-03-19T04:10:22;100746.78;;;3.28;100.00
35551;BME280;21655;46.056;13.616;2023-03-19T04:12:48;100738.56;;;3.28;100.00
35551;BME280;21655;46.056;13.616;2023-03-19T04:15:14;100737.72;;;3.28;100.00
35551;BME280;21655;46.056;13.616;2023-03-19T04:17:41;100742.56;;;3.24;100.00
35551;BME280;21655;46.056;13.616;2023-03-19T04:20:07;100743.94;;;3.30;100.00
35551;BME280;21655;46.056;13.616;2023-03-19T04:22:32;100737.72;;;3.28;100.00
35551;BME280;21655;46.056;13.616;2023-03-19T04:24:58;100752.41;;;3.27;100.00
35551;BME280;21655;46.056;13.616;2023-03-19T04:27:23;100745.94;;;3.28;100.00
35551;BME280;21655;46.056;13.616;2023-03-19T04:29:49;100747.06;;;3.14;100.00
35551;BME280;21655;46.056;13.616;2023-03-19T04:32:15;100752.53;;;3.14;100.00
35551;BME280;21655;46.056;13.616;2023-03-19T04:34:40;100747.28;;;3.11;100.00
35551;BME280;21655;46.056;13.616;2023-03-19T04:37:07;100759.22;;;3.10;100.00
35551;BME280;21655;46.056;13.616;2023-03-19T04:39:35;100753.00;;;3.08;100.00
35551;BME280;21655;46.056;13.616;2023-03-19T04:42:00;100756.88;;;3.17;100.00
35551;BME280;21655;46.056;13.616;2023-03-19T04:44:27;100757.88;;;3.16;100.00
35551;BME280;21655;46.056;13.616;2023-03-19T04:46:53;100760.59;;;3.05;100.00
35551;BME280;21655;46.056;13.616;2023-03-19T04:49:18;100756.63;;;2.98;100.00
35551;BME280;21655;46.056;13.616;2023-03-19T04:51:45;100753.53;;;3.02;100.00
35551;BME280;21655;46.056;13.616;2023-03-19T04:54:10;100756.63;;;3.09;100.00
35551;BME280;21655;46.056;13.616;2023-03-19T04:56:36;100760.50;;;3.17;100.00
35551;BME280;21655;46.056;13.616;2023-03-19T04:59:01;100761.97;;;3.10;100.00
35551;BME280;21655;46.056;13.616;2023-03-19T05:01:27;100762.97;;;3.09;100.00
35551;BME280;21655;46.056;13.616;2023-03-19T05:03:52;100772.19;;;3.19;100.00
35551;BME280;21655;46.056;13.616;2023-03-19T05:06:18;100770.84;;;3.25;100.00
35551;BME280;21655;46.056;13.616;2023-03-19T05:08:44;100765.75;;;3.31;100.00
35551;BME280;21655;46.056;13.616;2023-03-19T05:11:10;100771.09;;;3.44;100.00
35551;BME280;21655;46.056;13.616;2023-03-19T05:13:36;100773.81;;;3.44;100.00
35551;BME280;21655;46.056;13.616;2023-03-19T05:16:01;100779.16;;;3.45;100.00
35551;BME280;21655;46.056;13.616;2023-03-19T05:18:27;100787.00;;;3.50;100.00
35551;BME280;21655;46.056;13.616;2023-03-19T05:20:53;100789.00;;;3.48;100.00
35551;BME280;21655;46.056;13.616;2023-03-19T05:23:20;100777.94;;;3.49;100.00
35551;BME280;21655;46.056;13.616;2023-03-19T05:25:47;100772.41;;;3.60;100.00
35551;BME280;21655;46.056;13.616;2023-03-19T05:28:12;100778.91;;;3.59;100.00
35551;BME280;21655;46.056;13.616;2023-03-19T05:30:38;100789.97;;;3.68;100.00
35551;BME280;21655;46.056;13.616;2023-03-19T05:33:04;100788.13;;;3.80;100.00
35551;BME280;21655;46.056;13.616;2023-03-19T05:35:30;100789.69;;;3.93;100.00
35551;BME280;21655;46.056;13.616;2023-03-19T05:37:56;100800.25;;;4.09;100.00
35551;BME280;21655;46.056;13.616;2023-03-19T05:40:22;100806.16;;;4.04;100.00
35551;BME280;21655;46.056;13.616;2023-03-19T05:42:48;100793.91;;;3.97;100.00
35551;BME280;21655;46.056;13.616;2023-03-19T05:45:14;100807.47;;;4.10;100.00
35551;BME280;21655;46.056;13.616;2023-03-19T05:47:40;100804.19;;;4.27;100.00
35551;BME280;21655;46.056;13.616;2023-03-19T05:50:06;100806.88;;;4.49;100.00
35551;BME280;21655;46.056;13.616;2023-03-19T05:52:32;100811.78;;;4.66;100.00
35551;BME280;21655;46.056;13.616;2023-03-19T05:54:57;100804.81;;;4.82;100.00
35551;BME280;21655;46.056;13.616;2023-03-19T05:57:23;100815.59;;;4.74;100.00
35551;BME280;21655;46.056;13.616;2023-03-19T05:59:49;100810.31;;;4.82;100.00
35551;BME280;21655;46.056;13.616;2023-03-19T06:02:14;100817.47;;;4.74;100.00
35551;BME280;21655;46.056;13.616;2023-03-19T06:04:40;100815.72;;;4.73;100.00
35551;BME280;21655;46.056;13.616;2023-03-19T06:07:06;100820.09;;;4.75;100.00
35551;BME280;21655;46.056;13.616;2023-03-19T06:09:31;100816.06;;;4.79;100.00
35551;BME280;21655;46.056;13.616;2023-03-19T06:11:57;100825.06;;;5.02;100.00
35551;BME280;21655;46.056;13.616;2023-03-19T06:14:23;100825.84;;;4.93;100.00
35551;BME280;21655;46.056;13.616;2023-03-19T06:16:49;100830.09;;;4.97;100.00
35551;BME280;21655;46.056;13.616;2023-03-19T06:19:15;100825.06;;;5.02;100.00
35551;BME280;21655;46.056;13.616;2023-03-19T06:21:40;100833.25;;;5.13;100.00
35551;BME280;21655;46.056;13.616;2023-03-19T06:24:06;100832.75;;;5.08;100.00
35551;BME280;21655;46.056;13.616;2023-03-19T06:26:32;100849.69;;;5.33;100.00
35551;BME280;21655;46.056;13.616;2023-03-19T06:28:57;100848.16;;;5.40;100.00
35551;BME280;21655;46.056;13.616;2023-03-19T06:31:23;100845.69;;;5.37;100.00
35551;BME280;21655;46.056;13.616;2023-03-19T06:33:48;100840.13;;;5.57;100.00
35551;BME280;21655;46.056;13.616;2023-03-19T06:36:15;100851.50;;;5.73;100.00
35551;BME280;21655;46.056;13.616;2023-03-19T06:38:40;100833.66;;;5.88;100.00
35551;BME280;21655;46.056;13.616;2023-03-19T06:41:06;100831.66;;;6.00;100.00
35551;BME280;21655;46.056;13.616;2023-03-19T06:43:31;100838.50;;;6.05;100.00
35551;BME280;21655;46.056;13.616;2023-03-19T06:46:01;100837.66;;;6.14;100.00
35551;BME280;21655;46.056;13.616;2023-03-19T06:48:27;100848.38;;;6.08;100.00
35551;BME280;21655;46.056;13.616;2023-03-19T06:50:52;100853.59;;;6.20;100.00
35551;BME280;21655;46.056;13.616;2023-03-19T06:53:18;100854.72;;;6.08;100.00
35551;BME280;21655;46.056;13.616;2023-03-19T06:55:45;100860.03;;;6.40;100.00
35551;BME280;21655;46.056;13.616;2023-03-19T06:58:11;100861.69;;;6.71;100.00
35551;BME280;21655;46.056;13.616;2023-03-19T07:00:37;100867.44;;;7.34;100.00
35551;BME280;21655;46.056;13.616;2023-03-19T07:03:02;100865.25;;;7.56;100.00
35551;BME280;21655;46.056;13.616;2023-03-19T07:05:27;100857.25;;;7.53;100.00
35551;BME280;21655;46.056;13.616;2023-03-19T07:07:53;100853.44;;;7.64;100.00
35551;BME280;21655;46.056;13.616;2023-03-19T07:10:19;100850.75;;;7.91;100.00
35551;BME280;21655;46.056;13.616;2023-03-19T07:12:45;100848.41;;;8.23;100.00
35551;BME280;21655;46.056;13.616;2023-03-19T07:15:11;100850.72;;;8.54;100.00
35551;BME280;21655;46.056;13.616;2023-03-19T07:17:36;100851.44;;;8.56;100.00
35551;BME280;21655;46.056;13.616;2023-03-19T07:20:02;100855.88;;;9.02;100.00
35551;BME280;21655;46.056;13.616;2023-03-19T07:22:28;100855.25;;;9.08;100.00
35551;BME280;21655;46.056;13.616;2023-03-19T07:24:53;100848.47;;;9.02;100.00
35551;BME280;21655;46.056;13.616;2023-03-19T07:27:19;100860.28;;;9.72;100.00
35551;BME280;21655;46.056;13.616;2023-03-19T07:29:45;100859.53;;;9.96;100.00
35551;BME280;21655;46.056;13.616;2023-03-19T07:32:10;100867.06;;;10.37;100.00
35551;BME280;21655;46.056;13.616;2023-03-19T07:34:36;100864.97;;;10.31;100.00
35551;BME280;21655;46.056;13.616;2023-03-19T07:37:02;100863.53;;;10.60;100.00
35551;BME280;21655;46.056;13.616;2023-03-19T07:39:27;100861.88;;;10.42;100.00
35551;BME280;21655;46.056;13.616;2023-03-19T07:41:53;100858.88;;;10.69;100.00
35551;BME280;21655;46.056;13.616;2023-03-19T07:44:18;100853.66;;;10.66;100.00
35551;BME280;21655;46.056;13.616;2023-03-19T07:46:44;100850.47;;;11.34;100.00
35551;BME280;21655;46.056;13.616;2023-03-19T07:49:09;100846.47;;;11.36;100.00
35551;BME280;21655;46.056;13.616;2023-03-19T07:51:35;100854.56;;;10.74;100.00
35551;BME280;21655;46.056;13.616;2023-03-19T07:54:01;100854.28;;;11.49;100.00
35551;BME280;21655;46.056;13.616;2023-03-19T07:56:26;100855.69;;;11.61;100.00
35551;BME280;21655;46.056;13.616;2023-03-19T07:58:52;100860.88;;;11.32;100.00
35551;BME280;21655;46.056;13.616;2023-03-19T08:01:17;100858.59;;;10.96;100.00
35551;BME280;21655;46.056;13.616;2023-03-19T08:03:43;100846.19;;;10.66;100.00
35551;BME280;21655;46.056;13.616;2023-03-19T08:06:09;100851.69;;;11.16;100.00
35551;BME280;21655;46.056;13.616;2023-03-19T08:08:35;100855.31;;;11.80;100.00
35551;BME280;21655;46.056;13.616;2023-03-19T08:11:01;100843.19;;;13.26;100.00
35551;BME280;21655;46.056;13.616;2023-03-19T08:13:27;100843.00;;;13.28;100.00
35551;BME280;21655;46.056;13.616;2023-03-19T08:15:53;100832.69;;;13.73;100.00
35551;BME280;21655;46.056;13.616;2023-03-19T08:18:20;100841.88;;;14.11;100.00
35551;BME280;21655;46.056;13.616;2023-03-19T08:20:46;100830.34;;;13.62;100.00
35551;BME280;21655;46.056;13.616;2023-03-19T08:23:12;100839.50;;;14.22;100.00
35551;BME280;21655;46.056;13.616;2023-03-19T08:25:38;100843.25;;;14.29;100.00
35551;BME280;21655;46.056;13.616;2023-03-19T08:28:04;100834.84;;;14.15;95.02
35551;BME280;21655;46.056;13.616;2023-03-19T08:30:30;100834.97;;;15.84;82.24
35551;BME280;21655;46.056;13.616;2023-03-19T08:32:56;100835.69;;;16.94;69.10
35551;BME280;21655;46.056;13.616;2023-03-19T08:35:22;100827.72;;;16.98;68.23
35551;BME280;21655;46.056;13.616;2023-03-19T08:37:51;100828.50;;;16.79;66.96
35551;BME280;21655;46.056;13.616;2023-03-19T08:40:16;100825.47;;;16.74;67.03
35551;BME280;21655;46.056;13.616;2023-03-19T08:42:42;100827.69;;;17.70;64.10
35551;BME280;21655;46.056;13.616;2023-03-19T08:45:09;100829.19;;;18.18;56.71
35551;BME280;21655;46.056;13.616;2023-03-19T08:47:35;100828.66;;;19.23;53.23
35551;BME280;21655;46.056;13.616;2023-03-19T08:50:01;100816.59;;;19.78;51.56
35551;BME280;21655;46.056;13.616;2023-03-19T08:52:27;100807.03;;;18.74;52.67
35551;BME280;21655;46.056;13.616;2023-03-19T08:54:52;100816.66;;;19.41;50.06
35551;BME280;21655;46.056;13.616;2023-03-19T08:57:17;100803.25;;;20.41;49.67
35551;BME280;21655;46.056;13.616;2023-03-19T08:59:43;100810.19;;;20.99;46.01
35551;BME280;21655;46.056;13.616;2023-03-19T09:02:10;100804.13;;;21.13;44.44
35551;BME280;21655;46.056;13.616;2023-03-19T09:04:39;100811.75;;;20.95;45.91
35551;BME280;21655;46.056;13.616;2023-03-19T09:07:05;100808.34;;;20.08;46.42
35551;BME280;21655;46.056;13.616;2023-03-19T09:09:30;100810.19;;;17.94;51.14
35551;BME280;21655;46.056;13.616;2023-03-19T09:11:56;100814.72;;;17.95;51.16
35551;BME280;21655;46.056;13.616;2023-03-19T09:14:22;100809.66;;;17.13;50.81
35551;BME280;21655;46.056;13.616;2023-03-19T09:16:48;100804.47;;;15.89;53.73
35551;BME280;21655;46.056;13.616;2023-03-19T09:19:14;100817.03;;;15.30;59.12
35551;BME280;21655;46.056;13.616;2023-03-19T09:21:39;100827.41;;;14.80;62.80
35551;BME280;21655;46.056;13.616;2023-03-19T09:24:06;100824.53;;;14.73;73.55
35551;BME280;21655;46.056;13.616;2023-03-19T09:26:31;100830.84;;;14.32;76.61
35551;BME280;21655;46.056;13.616;2023-03-19T09:28:57;100821.78;;;15.29;75.13
35551;BME280;21655;46.056;13.616;2023-03-19T09:31:23;100808.63;;;16.33;71.66
35551;BME280;21655;46.056;13.616;2023-03-19T09:33:49;100821.78;;;16.67;66.30
35551;BME280;21655;46.056;13.616;2023-03-19T09:36:14;100817.97;;;16.81;63.68
35551;BME280;21655;46.056;13.616;2023-03-19T09:38:40;100806.38;;;16.97;61.47
35551;BME280;21655;46.056;13.616;2023-03-19T09:41:23;100810.81;;;18.42;55.53
35551;BME280;21655;46.056;13.616;2023-03-19T09:46:28;100808.00;;;18.48;43.02
35551;BME280;21655;46.056;13.616;2023-03-19T09:49:03;100803.63;;;19.77;40.83
35551;BME280;21655;46.056;13.616;2023-03-19T09:51:40;100799.25;;;19.50;39.39
35551;BME280;21655;46.056;13.616;2023-03-19T09:54:25;100787.13;;;20.30;37.84
35551;BME280;21655;46.056;13.616;2023-03-19T09:56:52;100787.97;;;20.30;36.86
35551;BME280;21655;46.056;13.616;2023-03-19T09:59:22;100782.13;;;20.32;38.29
35551;BME280;21655;46.056;13.616;2023-03-19T10:01:53;100780.94;;;19.72;37.30
35551;BME280;21655;46.056;13.616;2023-03-19T10:06:45;100774.47;;;18.60;38.25
35551;BME280;21655;46.056;13.616;2023-03-19T10:09:38;100767.22;;;18.13;39.21
35551;BME280;21655;46.056;13.616;2023-03-19T10:12:25;100777.97;;;17.25;39.21
35551;BME280;21655;46.056;13.616;2023-03-19T10:15:16;100770.47;;;17.32;40.39
35551;BME280;21655;46.056;13.616;2023-03-19T10:20:29;100780.03;;;18.73;39.21
35551;BME280;21655;46.056;13.616;2023-03-19T10:23:27;100787.34;;;17.65;40.05
35551;BME280;21655;46.056;13.616;2023-03-19T10:25:55;100777.34;;;18.27;38.73
35551;BME280;21655;46.056;13.616;2023-03-19T10:28:22;100773.19;;;19.37;38.25
35551;BME280;21655;46.056;13.616;2023-03-19T10:36:16;100790.91;;;18.50;36.65
35551;BME280;21655;46.056;13.616;2023-03-19T10:38:44;100782.03;;;18.53;38.09
35551;BME280;21655;46.056;13.616;2023-03-19T10:44:02;100789.47;;;18.85;37.48
35551;BME280;21655;46.056;13.616;2023-03-19T10:46:47;100779.28;;;19.34;36.75
35551;BME280;21655;46.056;13.616;2023-03-19T10:49:14;100781.13;;;19.46;36.51
35551;BME280;21655;46.056;13.616;2023-03-19T10:51:43;100786.94;;;18.70;38.25
35551;BME280;21655;46.056;13.616;2023-03-19T10:54:24;100786.25;;;17.92;39.33
35551;BME280;21655;46.056;13.616;2023-03-19T10:56:50;100791.41;;;17.36;39.51
35551;BME280;21655;46.056;13.616;2023-03-19T10:59:26;100785.69;;;16.98;40.16
35551;BME280;21655;46.056;13.616;2023-03-19T11:02:06;100786.03;;;17.54;40.28
35551;BME280;21655;46.056;13.616;2023-03-19T11:04:38;100787.53;;;18.09;39.18
35551;BME280;21655;46.056;13.616;2023-03-19T11:07:17;100789.22;;;18.93;37.15
35551;BME280;21655;46.056;13.616;2023-03-19T11:09:45;100786.16;;;18.94;37.36
35551;BME280;21655;46.056;13.616;2023-03-19T11:12:21;100775.59;;;18.26;38.04
35551;BME280;21655;46.056;13.616;2023-03-19T11:14:51;100773.66;;;18.40;37.77
35551;BME280;21655;46.056;13.616;2023-03-19T11:22:36;100773.94;;;17.54;40.15
35551;BME280;21655;46.056;13.616;2023-03-19T11:25:18;100770.06;;;17.42;39.38
35551;BME280;21655;46.056;13.616;2023-03-19T11:28:14;100766.59;;;17.98;39.18
35551;BME280;21655;46.056;13.616;2023-03-19T11:31:14;100770.09;;;17.55;39.91
35551;BME280;21655;46.056;13.616;2023-03-19T11:34:03;100764.22;;;17.37;41.14
35551;BME280;21655;46.056;13.616;2023-03-19T11:47:58;100760.00;;;16.88;44.06
35551;BME280;21655;46.056;13.616;2023-03-19T11:50:39;100762.31;;;16.71;44.55
35551;BME280;21655;46.056;13.616;2023-03-19T12:09:45;100740.91;;;16.44;45.04
35551;BME280;21655;46.056;13.616;2023-03-19T12:15:00;100733.63;;;16.50;45.03
35551;BME280;21655;46.056;13.616;2023-03-19T12:18:00;100732.84;;;16.28;45.14
35551;BME280;21655;46.056;13.616;2023-03-19T12:23:23;100726.91;;;16.44;44.93
35551;BME280;21655;46.056;13.616;2023-03-19T12:25:57;100730.88;;;16.76;44.32
35551;BME280;21655;46.056;13.616;2023-03-19T12:28:31;100730.69;;;16.77;43.66
35551;BME280;21655;46.056;13.616;2023-03-19T12:36:30;100716.56;;;17.30;42.83
35551;BME280;21655;46.056;13.616;2023-03-19T12:39:04;100718.50;;;17.69;42.33
35551;BME280;21655;46.056;13.616;2023-03-19T12:41:31;100712.84;;;17.88;41.42
35551;BME280;21655;46.056;13.616;2023-03-19T12:51:24;100705.00;;;18.23;41.12
35551;BME280;21655;46.056;13.616;2023-03-19T12:53:58;100714.66;;;17.63;42.58
35551;BME280;21655;46.056;13.616;2023-03-19T13:05:00;100699.66;;;16.72;45.29
35551;BME280;21655;46.056;13.616;2023-03-19T13:10:21;100698.28;;;16.49;45.51
35551;BME280;21655;46.056;13.616;2023-03-19T13:12:49;100697.25;;;16.16;46.75
35551;BME280;21655;46.056;13.616;2023-03-19T13:23:41;100691.00;;;15.80;49.21
35551;BME280;21655;46.056;13.616;2023-03-19T13:26:10;100683.88;;;15.71;49.10
35551;BME280;21655;46.056;13.616;2023-03-19T13:28:51;100686.38;;;15.59;49.95
35551;BME280;21655;46.056;13.616;2023-03-19T13:31:23;100687.69;;;15.63;50.28
35551;BME280;21655;46.056;13.616;2023-03-19T13:34:00;100685.41;;;15.73;50.50
35551;BME280;21655;46.056;13.616;2023-03-19T13:36:28;100688.41;;;15.72;50.53
35551;BME280;21655;46.056;13.616;2023-03-19T13:38:56;100692.63;;;15.61;51.72
35551;BME280;21655;46.056;13.616;2023-03-19T13:46:47;100688.41;;;15.44;51.38
35551;BME280;21655;46.056;13.616;2023-03-19T13:49:34;100685.72;;;15.57;51.67
35551;BME280;21655;46.056;13.616;2023-03-19T13:54:51;100686.41;;;15.38;51.47
35551;BME280;21655;46.056;13.616;2023-03-19T13:57:20;100681.25;;;15.14;51.32
35551;BME280;21655;46.056;13.616;2023-03-19T13:59:48;100675.88;;;15.34;52.14
35551;BME280;21655;46.056;13.616;2023-03-19T14:04:53;100666.63;;;15.33;50.88
35551;BME280;21655;46.056;13.616;2023-03-19T14:07:34;100674.91;;;15.27;51.13
35551;BME280;21655;46.056;13.616;2023-03-19T14:12:37;100664.41;;;15.29;50.59
35551;BME280;21655;46.056;13.616;2023-03-19T14:21:08;100662.50;;;15.29;50.20
35551;BME280;21655;46.056;13.616;2023-03-19T14:23:11;100662.50;;;15.29;49.98
35551;BME280;21655;46.056;13.616;2023-03-19T14:29:00;100660.00;;;15.41;50.17
35551;BME280;21655;46.056;13.616;2023-03-19T14:31:43;100651.16;;;15.37;51.02
35551;BME280;21655;46.056;13.616;2023-03-19T14:37:02;100659.97;;;15.13;51.34
35551;BME280;21655;46.056;13.616;2023-03-19T14:39:39;100661.28;;;15.17;51.06
35551;BME280;21655;46.056;13.616;2023-03-19T14:42:12;100655.56;;;15.25;52.84